Time;durP1;ratioP1;P1;durP2;ratioP2;P2;SDS_P1;SDS_P2;PMS_P1;PMS_P2;Temp;Humidity;BMP_temperature;BMP_pressure;BME280_temperature;BME280_humidity;BME280_pressure;Samples;Min_cycle;Max_cycle;Signal;HPM_P1;HPM_P2
2022/03/30 00:09:37;;;;;;;45.13;23.95;;;4.30;99.90;;;;;;20665861;28;20041;-45
2022/03/30 00:19:39;;;;;;;46.75;22.88;;;3.80;99.90;;;;;;20679561;28;20034;-45
2022/03/30 00:29:42;;;;;;;45.45;24.67;;;3.70;99.90;;;;;;20678317;28;20035;-45
2022/03/30 00:39:44;;;;;;;46.00;23.13;;;3.60;99.90;;;;;;20677468;28;20050;-45
2022/03/30 00:49:47;;;;;;;44.53;21.77;;;3.50;99.90;;;;;;20676908;28;20030;-53
2022/03/30 00:59:51;;;;;;;42.17;21.90;;;3.50;99.90;;;;;;20676528;28;20097;-46
2022/03/30 01:09:54;;;;;;;40.58;21.15;;;3.30;99.90;;;;;;20674988;28;20030;-45
2022/03/30 01:19:56;;;;;;;37.17;18.42;;;3.10;99.90;;;;;;20674552;28;20101;-45
2022/03/30 01:40:28;;;;;;;35.55;19.38;;;2.50;99.90;;;;;;20674546;28;20050;-45
2022/03/30 01:50:32;;;;;;;35.13;18.88;;;2.20;99.90;;;;;;20672222;28;20089;-46
2022/03/30 02:00:35;;;;;;;39.08;19.17;;;2.10;99.90;;;;;;20655276;28;20473;-45
2022/03/30 02:10:38;;;;;;;38.25;18.73;;;2.00;99.90;;;;;;20670992;28;20489;-44
2022/03/30 02:20:41;;;;;;;31.58;17.38;;;2.00;99.90;;;;;;20669989;28;20046;-50
2022/03/30 02:30:43;;;;;;;29.75;16.10;;;2.00;99.90;;;;;;20637472;28;20038;-45
2022/03/30 02:40:46;;;;;;;31.05;17.20;;;2.00;99.90;;;;;;20636770;28;20437;-44
2022/03/30 02:50:54;;;;;;;37.97;18.75;;;2.00;99.90;;;;;;20669083;28;20489;-46
2022/03/30 03:00:58;;;;;;;40.25;19.63;;;2.00;99.90;;;;;;20652241;28;20038;-46
2022/03/30 03:11:00;;;;;;;39.78;21.95;;;1.90;99.90;;;;;;20668130;28;20034;-46
2022/03/30 03:21:03;;;;;;;51.63;26.33;;;1.90;99.90;;;;;;20668300;28;20046;-45
2022/03/30 03:31:05;;;;;;;45.65;24.13;;;2.00;99.90;;;;;;20671151;28;20525;-47
2022/03/30 03:41:08;;;;;;;39.92;21.48;;;2.10;99.90;;;;;;20682456;28;20050;-48
2022/03/30 03:51:10;;;;;;;46.58;23.98;;;2.10;99.90;;;;;;20681852;28;20520;-45
2022/03/30 04:01:13;;;;;;;44.88;25.45;;;2.20;99.90;;;;;;20681109;28;20034;-46
2022/03/30 04:11:16;;;;;;;48.67;22.88;;;2.50;99.90;;;;;;20680457;28;20042;-47
2022/03/30 04:21:18;;;;;;;47.25;24.65;;;2.80;99.90;;;;;;20679540;28;20397;-46
2022/03/30 04:31:20;;;;;;;45.97;25.60;;;3.20;99.90;;;;;;20678560;28;20490;-49
2022/03/30 04:41:23;;;;;;;47.13;25.70;;;3.60;99.90;;;;;;20662354;28;20112;-45
2022/03/30 04:51:25;;;;;;;48.75;25.13;;;3.80;99.90;;;;;;20677003;28;20042;-48
2022/03/30 05:01:29;;;;;;;47.33;24.73;;;4.00;99.90;;;;;;20676431;28;20034;-47
2022/03/30 05:11:32;;;;;;;47.78;25.55;;;4.00;99.90;;;;;;20679290;28;20057;-50
2022/03/30 05:21:34;;;;;;;46.33;23.98;;;4.00;99.90;;;;;;20658876;28;20097;-47
2022/03/30 05:31:37;;;;;;;46.05;24.02;;;3.90;99.90;;;;;;20674163;28;20070;-47
2022/03/30 05:41:39;;;;;;;51.80;26.10;;;3.90;99.90;;;;;;20672890;28;20050;-46
2022/03/30 05:51:42;;;;;;;43.38;24.15;;;4.10;99.90;;;;;;20672493;28;20038;-47
2022/03/30 06:01:46;;;;;;;48.35;25.45;;;4.20;99.90;;;;;;20671045;28;20501;-46
2022/03/30 06:11:48;;;;;;;44.53;25.45;;;4.40;99.90;;;;;;20671094;28;20105;-47
2022/03/30 06:21:51;;;;;;;45.63;24.15;;;4.60;99.90;;;;;;20670349;28;20057;-53
2022/03/30 06:31:54;;;;;;;44.45;23.25;;;4.80;99.90;;;;;;20669679;28;20057;-47
2022/03/30 06:41:57;;;;;;;38.55;22.25;;;5.00;99.90;;;;;;20652837;28;20054;-46
2022/03/30 06:52:00;;;;;;;40.83;23.20;;;5.20;99.90;;;;;;20669052;28;20108;-47
2022/03/30 07:02:04;;;;;;;42.40;23.98;;;5.40;99.90;;;;;;20668480;28;20042;-46
2022/03/30 07:12:07;;;;;;;43.80;24.83;;;5.50;99.90;;;;;;20685097;28;20100;-47
2022/03/30 07:22:11;;;;;;;43.80;25.38;;;5.70;99.90;;;;;;20652589;28;20089;-47
2022/03/30 07:32:14;;;;;;;44.38;25.02;;;5.80;99.90;;;;;;20683436;28;20038;-48
2022/03/30 07:42:16;;;;;;;55.05;26.45;;;5.60;99.90;;;;;;20666301;28;20058;-45
2022/03/30 07:52:20;;;;;;;48.85;26.85;;;5.50;99.90;;;;;;20681784;28;20038;-45
2022/03/30 08:02:24;;;;;;;53.85;28.48;;;5.30;99.90;;;;;;20664653;28;20406;-49
2022/03/30 08:12:26;;;;;;;49.55;26.27;;;5.30;99.90;;;;;;20683137;28;20069;-46
2022/03/30 08:22:29;;;;;;;42.00;23.40;;;5.50;99.90;;;;;;20679826;28;20038;-52
2022/03/30 08:32:32;;;;;;;38.38;20.67;;;5.80;99.90;;;;;;20678866;28;20560;-52
2022/03/30 08:42:36;;;;;;;40.67;23.20;;;6.30;99.90;;;;;;20678004;28;20057;-50
2022/03/30 08:52:41;;;;;;;37.45;21.92;;;6.80;99.90;;;;;;20677217;28;20092;-48
2022/03/30 09:02:50;;;;;;;31.90;18.65;;;6.70;99.90;;;;;;20676417;28;20034;-49
2022/03/30 09:12:52;;;;;;;38.22;20.92;;;6.70;99.90;;;;;;20675667;28;20034;-47
2022/03/30 09:23:14;;;;;;;36.67;19.40;;;6.90;99.90;;;;;;20659682;28;20046;-45
2022/03/30 09:33:19;;;;;;;34.88;17.65;;;6.70;99.90;;;;;;20657672;28;20042;-53
2022/03/30 09:43:25;;;;;;;30.70;16.88;;;6.90;99.90;;;;;;20673374;28;20417;-49
2022/03/30 09:53:30;;;;;;;33.15;19.33;;;7.40;99.90;;;;;;20672755;28;20485;-47
2022/03/30 10:03:59;;;;;;;42.50;20.25;;;7.40;99.90;;;;;;20673068;28;20473;-47
2022/03/30 10:14:05;;;;;;;35.72;20.73;;;7.10;99.90;;;;;;20639800;28;20046;-47
2022/03/30 10:24:26;;;;;;;37.22;18.63;;;6.80;99.90;;;;;;20670371;28;20100;-53
2022/03/30 10:34:28;;;;;;;32.42;19.02;;;6.50;99.90;;;;;;20637372;28;20520;-45
2022/03/30 10:44:45;;;;;;;33.85;18.40;;;6.30;99.90;;;;;;20668482;28;20355;-50
2022/03/30 10:54:50;;;;;;;31.35;17.83;;;6.80;99.90;;;;;;20668736;28;20038;-47
2022/03/30 11:05:09;;;;;;;28.10;15.82;;;7.40;99.90;;;;;;20636993;28;20042;-48
2022/03/30 11:15:12;;;;;;;26.08;14.73;;;8.50;99.90;;;;;;20652345;28;20038;-49
2022/03/30 11:25:23;;;;;;;26.30;14.32;;;10.10;99.90;;;;;;20668168;28;20042;-47
2022/03/30 11:35:48;;;;;;;32.85;16.33;;;11.50;99.90;;;;;;20667364;28;20034;-46
2022/03/30 11:45:51;;;;;;;25.95;15.25;;;10.90;99.90;;;;;;20667283;28;20042;-45
2022/03/30 11:56:05;;;;;;;33.33;16.42;;;10.30;99.90;;;;;;20675903;28;20038;-46
2022/03/30 12:06:10;;;;;;;29.38;16.50;;;9.70;99.90;;;;;;20681066;28;20092;-47
2022/03/30 12:16:15;;;;;;;27.83;15.93;;;8.90;99.90;;;;;;20681067;28;20046;-49
2022/03/30 12:26:18;;;;;;;31.35;17.98;;;8.30;99.90;;;;;;20679397;28;20046;-45
2022/03/30 12:36:21;;;;;;;35.95;20.33;;;7.90;99.90;;;;;;20678374;28;20049;-46
2022/03/30 12:46:24;;;;;;;41.10;22.67;;;7.90;99.90;;;;;;20677666;28;20030;-47
2022/03/30 12:56:26;;;;;;;43.17;23.15;;;8.00;99.90;;;;;;20677151;28;20065;-46
2022/03/30 13:06:29;;;;;;;43.40;24.10;;;7.50;99.90;;;;;;20678610;28;20494;-47
2022/03/30 13:16:31;;;;;;;50.10;29.02;;;7.00;99.90;;;;;;20675423;28;20035;-47
2022/03/30 13:26:40;;;;;;;49.42;28.40;;;6.70;99.90;;;;;;20675870;28;20096;-47
2022/03/30 13:36:43;;;;;;;46.25;26.35;;;6.70;99.90;;;;;;20674334;28;20405;-48
2022/03/30 13:46:46;;;;;;;52.75;27.48;;;7.10;99.90;;;;;;20673469;28;20096;-49
2022/03/30 13:56:48;;;;;;;39.70;23.02;;;7.60;99.90;;;;;;20673490;28;20038;-48
2022/03/30 14:06:51;;;;;;;39.33;22.60;;;7.80;99.90;;;;;;20673385;28;20042;-50
2022/03/30 14:16:55;;;;;;;38.67;21.10;;;7.60;99.90;;;;;;20670079;28;20038;-47
2022/03/30 14:26:58;;;;;;;34.25;18.75;;;7.00;99.90;;;;;;20653914;28;20046;-51
2022/03/30 14:37:01;;;;;;;29.88;16.92;;;7.00;99.90;;;;;;20669633;28;20046;-49
2022/03/30 14:47:04;;;;;;;26.23;14.52;;;7.10;99.90;;;;;;20669289;28;20038;-46
2022/03/30 14:57:06;;;;;;;27.73;14.73;;;7.00;99.90;;;;;;20668695;28;20096;-51
2022/03/30 15:07:10;;;;;;;21.10;12.43;;;6.80;99.90;;;;;;20668666;28;20042;-47
2022/03/30 15:17:12;;;;;;;22.13;12.70;;;6.60;99.90;;;;;;20652112;28;20035;-48
2022/03/30 15:27:15;;;;;;;24.48;14.40;;;6.70;99.90;;;;;;20639694;28;20038;-47
2022/03/30 15:37:19;;;;;;;21.15;12.07;;;6.60;99.90;;;;;;20683463;28;20417;-47
2022/03/30 15:47:21;;;;;;;22.02;12.85;;;6.50;99.90;;;;;;20682383;28;20038;-45
2022/03/30 15:57:24;;;;;;;19.48;11.27;;;6.70;99.90;;;;;;20681740;28;20171;-46
2022/03/30 16:07:26;;;;;;;18.77;10.90;;;7.00;99.90;;;;;;20678144;28;20038;-49
2022/03/30 16:17:29;;;;;;;21.98;11.63;;;6.90;99.90;;;;;;20680000;28;20038;-46
2022/03/30 16:27:32;;;;;;;24.15;11.57;;;6.60;99.90;;;;;;20679016;28;20041;-46
2022/03/30 16:37:36;;;;;;;20.92;10.48;;;6.30;99.90;;;;;;20677354;28;20043;-45
2022/03/30 16:47:39;;;;;;;17.27;11.20;;;6.00;99.90;;;;;;20678163;28;20077;-46
2022/03/30 16:57:42;;;;;;;25.80;15.45;;;5.80;99.90;;;;;;20676836;28;20042;-47
2022/03/30 17:07:45;;;;;;;24.23;14.52;;;5.70;99.90;;;;;;20676533;28;20034;-48
2022/03/30 17:17:47;;;;;;;28.80;14.90;;;5.50;99.90;;;;;;20659177;28;20556;-47
2022/03/30 17:27:51;;;;;;;29.60;15.05;;;5.50;99.90;;;;;;20675177;28;20389;-47
2022/03/30 17:37:56;;;;;;;26.27;15.52;;;5.30;99.90;;;;;;20674732;28;20050;-46
2022/03/30 17:51:50;;;;;;;32.25;16.80;;;5.10;99.90;;;;;;20672854;28;20062;-47
2022/03/30 17:58:23;;;;;;;29.00;16.40;;;4.90;99.90;;;;;;20656006;28;20108;-47
2022/03/30 18:08:26;;;;;;;30.00;17.08;;;4.80;99.90;;;;;;20655592;28;20038;-46
2022/03/30 18:18:28;;;;;;;26.48;16.52;;;4.80;99.90;;;;;;20670791;28;20513;-45
2022/03/30 18:28:31;;;;;;;33.50;18.38;;;4.80;99.90;;;;;;20653929;28;20497;-45
2022/03/30 18:38:34;;;;;;;40.55;21.48;;;4.70;99.90;;;;;;20669605;28;20125;-46
2022/03/30 18:48:37;;;;;;;39.45;22.40;;;4.70;99.90;;;;;;20669547;28;20042;-46
2022/03/30 18:58:40;;;;;;;39.60;19.02;;;4.60;99.90;;;;;;20668756;28;20100;-46
2022/03/30 19:08:43;;;;;;;38.15;16.10;;;4.50;99.90;;;;;;20683629;28;20034;-45
2022/03/30 19:18:45;;;;;;;24.90;15.38;;;4.50;99.90;;;;;;20684484;28;20097;-46
2022/03/30 19:28:49;;;;;;;33.70;18.80;;;4.50;99.90;;;;;;20683623;28;20042;-47
2022/03/30 19:38:51;;;;;;;43.42;23.40;;;4.50;99.90;;;;;;20683124;28;20038;-47
2022/03/30 19:48:57;;;;;;;44.13;22.23;;;4.50;99.90;;;;;;20683069;28;20363;-48
2022/03/30 19:58:59;;;;;;;35.53;20.40;;;4.40;99.90;;;;;;20681400;28;20564;-46
2022/03/30 20:09:02;;;;;;;44.40;23.08;;;4.40;99.90;;;;;;20684577;28;20448;-45
2022/03/30 20:19:07;;;;;;;38.00;20.38;;;4.40;99.90;;;;;;20679025;28;20074;-47
2022/03/30 20:29:13;;;;;;;35.17;20.35;;;4.30;99.90;;;;;;20679348;28;20085;-45
2022/03/30 20:39:16;;;;;;;38.53;22.08;;;4.20;99.90;;;;;;20678721;28;20429;-45
2022/03/30 20:49:19;;;;;;;38.97;22.02;;;4.20;99.90;;;;;;20677606;28;20061;-49
2022/03/30 20:59:21;;;;;;;35.88;19.33;;;4.30;99.90;;;;;;20677074;28;20560;-46
2022/03/30 21:09:23;;;;;;;43.05;20.38;;;4.30;99.90;;;;;;20662662;28;20030;-45
2022/03/30 21:19:27;;;;;;;34.17;16.88;;;4.40;99.90;;;;;;20675757;28;20065;-46
2022/03/30 21:29:30;;;;;;;31.70;15.25;;;4.30;99.90;;;;;;20641709;28;20073;-46
2022/03/30 21:39:33;;;;;;;24.05;13.05;;;4.30;99.90;;;;;;20675206;28;20137;-49
2022/03/30 21:49:35;;;;;;;33.72;16.73;;;4.40;99.90;;;;;;20674006;28;20058;-45
2022/03/30 21:59:38;;;;;;;27.58;15.23;;;4.40;99.90;;;;;;20672400;28;20544;-46
2022/03/30 22:09:40;;;;;;;29.88;16.13;;;4.40;99.90;;;;;;20674674;28;20038;-46
2022/03/30 22:19:43;;;;;;;35.13;17.50;;;4.30;99.90;;;;;;20671036;28;20157;-49
2022/03/30 22:29:46;;;;;;;31.58;17.65;;;4.20;99.90;;;;;;20670329;28;20108;-46
2022/03/30 22:39:48;;;;;;;31.33;16.33;;;4.20;99.90;;;;;;20669205;28;20054;-46
2022/03/30 22:49:51;;;;;;;31.35;16.75;;;4.20;99.90;;;;;;20669534;28;20086;-49
2022/03/30 22:59:54;;;;;;;25.42;13.40;;;4.20;99.90;;;;;;20668980;28;20449;-49
2022/03/30 23:09:56;;;;;;;26.73;11.88;;;4.20;99.90;;;;;;20654943;28;20182;-50
2022/03/30 23:19:58;;;;;;;17.63;9.20;;;4.20;99.90;;;;;;20668650;28;20070;-46
2022/03/30 23:30:03;;;;;;;18.38;9.15;;;4.20;99.90;;;;;;20668261;28;20100;-44
2022/03/30 23:40:06;;;;;;;16.73;9.20;;;4.30;99.90;;;;;;20667358;28;20046;-45
2022/03/30 23:50:10;;;;;;;19.10;11.52;;;4.30;99.90;;;;;;20657278;28;20034;-44
